sensor_id;sensor_type;location;lat;lon;timestamp;P1;durP1;ratioP1;P2;durP2;ratioP2
74523;SDS011;63074;44.696;10.358;2024-01-30T00:00:04;9.13;;;4.20;;
74523;SDS011;63074;44.696;10.358;2024-01-30T00:02:31;10.00;;;4.60;;
74523;SDS011;63074;44.696;10.358;2024-01-30T00:04:58;8.40;;;4.55;;
74523;SDS011;63074;44.696;10.358;2024-01-30T00:07:24;7.70;;;4.20;;
74523;SDS011;63074;44.696;10.358;2024-01-30T00:09:50;8.18;;;4.72;;
74523;SDS011;63074;44.696;10.358;2024-01-30T00:12:16;9.90;;;4.65;;
74523;SDS011;63074;44.696;10.358;2024-01-30T00:14:43;7.05;;;4.13;;
74523;SDS011;63074;44.696;10.358;2024-01-30T00:17:09;9.52;;;4.85;;
74523;SDS011;63074;44.696;10.358;2024-01-30T00:19:35;11.20;;;5.20;;
74523;SDS011;63074;44.696;10.358;2024-01-30T00:22:01;11.65;;;4.95;;
74523;SDS011;63074;44.696;10.358;2024-01-30T00:24:28;9.68;;;5.63;;
74523;SDS011;63074;44.696;10.358;2024-01-30T00:26:54;10.52;;;5.20;;
74523;SDS011;63074;44.696;10.358;2024-01-30T00:29:20;9.68;;;5.00;;
74523;SDS011;63074;44.696;10.358;2024-01-30T00:31:47;10.82;;;5.47;;
74523;SDS011;63074;44.696;10.358;2024-01-30T00:34:14;11.20;;;6.70;;
74523;SDS011;63074;44.696;10.358;2024-01-30T00:36:40;13.30;;;7.32;;
74523;SDS011;63074;44.696;10.358;2024-01-30T00:39:06;8.93;;;5.85;;
74523;SDS011;63074;44.696;10.358;2024-01-30T00:41:34;11.57;;;5.40;;
74523;SDS011;63074;44.696;10.358;2024-01-30T00:44:00;12.27;;;5.47;;
74523;SDS011;63074;44.696;10.358;2024-01-30T00:46:26;11.85;;;5.93;;
74523;SDS011;63074;44.696;10.358;2024-01-30T00:48:55;11.68;;;6.57;;
74523;SDS011;63074;44.696;10.358;2024-01-30T00:51:22;13.20;;;5.93;;
74523;SDS011;63074;44.696;10.358;2024-01-30T00:53:48;15.15;;;8.18;;
74523;SDS011;63074;44.696;10.358;2024-01-30T00:56:14;15.13;;;8.05;;
74523;SDS011;63074;44.696;10.358;2024-01-30T00:58:43;14.57;;;7.50;;
74523;SDS011;63074;44.696;10.358;2024-01-30T01:01:09;17.35;;;8.73;;
74523;SDS011;63074;44.696;10.358;2024-01-30T01:03:35;13.13;;;7.72;;
74523;SDS011;63074;44.696;10.358;2024-01-30T01:06:01;16.15;;;7.68;;
74523;SDS011;63074;44.696;10.358;2024-01-30T01:08:31;17.60;;;8.18;;
74523;SDS011;63074;44.696;10.358;2024-01-30T01:10:57;18.73;;;7.93;;
74523;SDS011;63074;44.696;10.358;2024-01-30T01:13:23;16.30;;;8.70;;
74523;SDS011;63074;44.696;10.358;2024-01-30T01:15:49;16.30;;;8.88;;
74523;SDS011;63074;44.696;10.358;2024-01-30T01:18:15;18.17;;;7.93;;
74523;SDS011;63074;44.696;10.358;2024-01-30T01:20:42;19.33;;;8.93;;
74523;SDS011;63074;44.696;10.358;2024-01-30T01:23:08;15.02;;;8.13;;
74523;SDS011;63074;44.696;10.358;2024-01-30T01:25:34;17.88;;;8.32;;
74523;SDS011;63074;44.696;10.358;2024-01-30T01:28:00;18.23;;;9.20;;
74523;SDS011;63074;44.696;10.358;2024-01-30T01:30:26;16.98;;;8.75;;
74523;SDS011;63074;44.696;10.358;2024-01-30T01:32:54;19.50;;;8.60;;
74523;SDS011;63074;44.696;10.358;2024-01-30T01:35:24;19.67;;;8.80;;
74523;SDS011;63074;44.696;10.358;2024-01-30T01:37:51;14.82;;;7.65;;
74523;SDS011;63074;44.696;10.358;2024-01-30T01:40:23;18.48;;;9.15;;
74523;SDS011;63074;44.696;10.358;2024-01-30T01:45:17;15.32;;;7.90;;
74523;SDS011;63074;44.696;10.358;2024-01-30T01:47:43;14.65;;;8.95;;
74523;SDS011;63074;44.696;10.358;2024-01-30T01:50:12;20.25;;;9.77;;
74523;SDS011;63074;44.696;10.358;2024-01-30T01:52:43;22.30;;;10.60;;
74523;SDS011;63074;44.696;10.358;2024-01-30T01:55:12;19.35;;;9.82;;
74523;SDS011;63074;44.696;10.358;2024-01-30T01:57:39;20.80;;;9.70;;
74523;SDS011;63074;44.696;10.358;2024-01-30T02:00:07;19.70;;;9.90;;
74523;SDS011;63074;44.696;10.358;2024-01-30T02:02:36;19.35;;;8.93;;
74523;SDS011;63074;44.696;10.358;2024-01-30T02:05:04;17.63;;;8.48;;
74523;SDS011;63074;44.696;10.358;2024-01-30T02:07:30;17.38;;;8.63;;
74523;SDS011;63074;44.696;10.358;2024-01-30T02:09:56;19.13;;;9.02;;
74523;SDS011;63074;44.696;10.358;2024-01-30T02:12:23;18.33;;;9.40;;
74523;SDS011;63074;44.696;10.358;2024-01-30T02:14:49;18.70;;;9.65;;
74523;SDS011;63074;44.696;10.358;2024-01-30T02:17:16;20.55;;;8.93;;
74523;SDS011;63074;44.696;10.358;2024-01-30T02:19:42;15.25;;;9.02;;
74523;SDS011;63074;44.696;10.358;2024-01-30T02:22:08;18.38;;;10.50;;
74523;SDS011;63074;44.696;10.358;2024-01-30T02:24:35;22.02;;;9.07;;
74523;SDS011;63074;44.696;10.358;2024-01-30T02:27:01;20.52;;;10.60;;
74523;SDS011;63074;44.696;10.358;2024-01-30T02:29:27;18.27;;;9.40;;
74523;SDS011;63074;44.696;10.358;2024-01-30T02:31:54;23.05;;;10.18;;
74523;SDS011;63074;44.696;10.358;2024-01-30T02:34:20;19.95;;;8.75;;
74523;SDS011;63074;44.696;10.358;2024-01-30T02:36:46;21.13;;;11.23;;
74523;SDS011;63074;44.696;10.358;2024-01-30T02:39:12;24.40;;;11.27;;
74523;SDS011;63074;44.696;10.358;2024-01-30T02:41:38;18.98;;;9.25;;
74523;SDS011;63074;44.696;10.358;2024-01-30T02:44:05;17.58;;;9.48;;
74523;SDS011;63074;44.696;10.358;2024-01-30T02:46:31;20.80;;;8.85;;
74523;SDS011;63074;44.696;10.358;2024-01-30T02:48:57;17.48;;;9.32;;
74523;SDS011;63074;44.696;10.358;2024-01-30T02:51:23;20.60;;;10.50;;
74523;SDS011;63074;44.696;10.358;2024-01-30T02:53:49;16.27;;;9.13;;
74523;SDS011;63074;44.696;10.358;2024-01-30T02:56:16;15.52;;;7.93;;
74523;SDS011;63074;44.696;10.358;2024-01-30T02:58:42;18.55;;;9.45;;
74523;SDS011;63074;44.696;10.358;2024-01-30T03:01:08;19.33;;;9.98;;
74523;SDS011;63074;44.696;10.358;2024-01-30T03:03:34;16.60;;;8.90;;
74523;SDS011;63074;44.696;10.358;2024-01-30T03:06:01;19.08;;;9.20;;
74523;SDS011;63074;44.696;10.358;2024-01-30T03:08:27;18.92;;;9.35;;
74523;SDS011;63074;44.696;10.358;2024-01-30T03:10:53;18.52;;;9.55;;
74523;SDS011;63074;44.696;10.358;2024-01-30T03:13:19;12.90;;;8.25;;
74523;SDS011;63074;44.696;10.358;2024-01-30T03:15:48;18.98;;;7.88;;
74523;SDS011;63074;44.696;10.358;2024-01-30T03:18:14;17.83;;;8.82;;
74523;SDS011;63074;44.696;10.358;2024-01-30T03:20:40;15.82;;;7.53;;
74523;SDS011;63074;44.696;10.358;2024-01-30T03:23:07;19.50;;;8.45;;
74523;SDS011;63074;44.696;10.358;2024-01-30T03:25:33;18.55;;;9.95;;
74523;SDS011;63074;44.696;10.358;2024-01-30T03:27:59;19.00;;;9.48;;
74523;SDS011;63074;44.696;10.358;2024-01-30T03:30:25;21.92;;;10.45;;
74523;SDS011;63074;44.696;10.358;2024-01-30T03:32:51;19.98;;;10.82;;
74523;SDS011;63074;44.696;10.358;2024-01-30T03:35:18;19.70;;;9.93;;
74523;SDS011;63074;44.696;10.358;2024-01-30T03:37:45;17.42;;;9.98;;
74523;SDS011;63074;44.696;10.358;2024-01-30T03:40:11;16.27;;;9.23;;
74523;SDS011;63074;44.696;10.358;2024-01-30T03:42:37;18.08;;;8.10;;
74523;SDS011;63074;44.696;10.358;2024-01-30T03:45:04;16.30;;;7.60;;
74523;SDS011;63074;44.696;10.358;2024-01-30T03:47:30;16.70;;;7.93;;
74523;SDS011;63074;44.696;10.358;2024-01-30T03:49:56;18.52;;;9.02;;
74523;SDS011;63074;44.696;10.358;2024-01-30T03:52:23;17.42;;;8.63;;
74523;SDS011;63074;44.696;10.358;2024-01-30T03:54:49;15.48;;;7.30;;
74523;SDS011;63074;44.696;10.358;2024-01-30T03:57:15;11.55;;;6.90;;
74523;SDS011;63074;44.696;10.358;2024-01-30T03:59:44;14.07;;;7.38;;
74523;SDS011;63074;44.696;10.358;2024-01-30T04:02:10;17.88;;;8.70;;
74523;SDS011;63074;44.696;10.358;2024-01-30T04:04:37;15.10;;;7.00;;
74523;SDS011;63074;44.696;10.358;2024-01-30T04:07:03;12.82;;;7.53;;
74523;SDS011;63074;44.696;10.358;2024-01-30T04:09:29;12.90;;;6.55;;
74523;SDS011;63074;44.696;10.358;2024-01-30T04:11:56;13.45;;;6.63;;
74523;SDS011;63074;44.696;10.358;2024-01-30T04:14:22;13.35;;;7.35;;
74523;SDS011;63074;44.696;10.358;2024-01-30T04:16:49;15.50;;;6.80;;
74523;SDS011;63074;44.696;10.358;2024-01-30T04:19:15;13.50;;;6.93;;
74523;SDS011;63074;44.696;10.358;2024-01-30T04:21:41;12.15;;;6.88;;
74523;SDS011;63074;44.696;10.358;2024-01-30T04:24:07;13.73;;;6.10;;
74523;SDS011;63074;44.696;10.358;2024-01-30T04:26:33;12.32;;;6.20;;
74523;SDS011;63074;44.696;10.358;2024-01-30T04:29:00;13.10;;;5.80;;
74523;SDS011;63074;44.696;10.358;2024-01-30T04:31:26;12.20;;;5.75;;
74523;SDS011;63074;44.696;10.358;2024-01-30T04:33:52;12.90;;;6.47;;
74523;SDS011;63074;44.696;10.358;2024-01-30T04:36:18;11.48;;;6.97;;
74523;SDS011;63074;44.696;10.358;2024-01-30T04:38:44;13.18;;;6.50;;
74523;SDS011;63074;44.696;10.358;2024-01-30T04:41:11;12.20;;;7.10;;
74523;SDS011;63074;44.696;10.358;2024-01-30T04:43:37;11.18;;;5.65;;
74523;SDS011;63074;44.696;10.358;2024-01-30T04:46:03;14.82;;;6.25;;
74523;SDS011;63074;44.696;10.358;2024-01-30T04:48:30;14.18;;;6.28;;
74523;SDS011;63074;44.696;10.358;2024-01-30T04:50:56;13.95;;;7.30;;
74523;SDS011;63074;44.696;10.358;2024-01-30T04:53:23;25.98;;;19.42;;
74523;SDS011;63074;44.696;10.358;2024-01-30T04:55:49;18.05;;;10.80;;
74523;SDS011;63074;44.696;10.358;2024-01-30T04:58:15;14.20;;;6.82;;
74523;SDS011;63074;44.696;10.358;2024-01-30T05:00:41;15.35;;;8.30;;
74523;SDS011;63074;44.696;10.358;2024-01-30T05:03:08;18.02;;;11.32;;
74523;SDS011;63074;44.696;10.358;2024-01-30T05:05:34;12.98;;;7.07;;
74523;SDS011;63074;44.696;10.358;2024-01-30T05:08:00;11.50;;;6.80;;
74523;SDS011;63074;44.696;10.358;2024-01-30T05:10:26;12.40;;;5.93;;
74523;SDS011;63074;44.696;10.358;2024-01-30T05:12:53;14.45;;;6.15;;
74523;SDS011;63074;44.696;10.358;2024-01-30T05:15:19;15.30;;;5.88;;
74523;SDS011;63074;44.696;10.358;2024-01-30T05:17:46;12.50;;;6.15;;
74523;SDS011;63074;44.696;10.358;2024-01-30T05:20:12;14.60;;;6.97;;
74523;SDS011;63074;44.696;10.358;2024-01-30T05:22:38;18.30;;;8.45;;
74523;SDS011;63074;44.696;10.358;2024-01-30T05:25:09;15.40;;;7.22;;
74523;SDS011;63074;44.696;10.358;2024-01-30T05:27:37;14.63;;;7.57;;
74523;SDS011;63074;44.696;10.358;2024-01-30T05:30:04;13.60;;;7.00;;
74523;SDS011;63074;44.696;10.358;2024-01-30T05:32:31;15.40;;;7.70;;
74523;SDS011;63074;44.696;10.358;2024-01-30T05:34:57;17.20;;;8.63;;
74523;SDS011;63074;44.696;10.358;2024-01-30T05:37:24;18.75;;;8.02;;
74523;SDS011;63074;44.696;10.358;2024-01-30T05:39:50;14.63;;;7.43;;
74523;SDS011;63074;44.696;10.358;2024-01-30T05:42:16;22.52;;;9.50;;
74523;SDS011;63074;44.696;10.358;2024-01-30T05:44:42;17.80;;;8.70;;
74523;SDS011;63074;44.696;10.358;2024-01-30T05:47:08;17.25;;;8.10;;
74523;SDS011;63074;44.696;10.358;2024-01-30T05:49:35;24.10;;;11.27;;
74523;SDS011;63074;44.696;10.358;2024-01-30T05:52:02;19.80;;;11.02;;
74523;SDS011;63074;44.696;10.358;2024-01-30T05:54:29;24.60;;;10.13;;
74523;SDS011;63074;44.696;10.358;2024-01-30T05:56:55;23.10;;;10.27;;
74523;SDS011;63074;44.696;10.358;2024-01-30T05:59:21;21.02;;;9.30;;
74523;SDS011;63074;44.696;10.358;2024-01-30T06:01:48;19.85;;;10.25;;
74523;SDS011;63074;44.696;10.358;2024-01-30T06:04:14;19.98;;;8.50;;
74523;SDS011;63074;44.696;10.358;2024-01-30T06:06:41;17.25;;;7.78;;
74523;SDS011;63074;44.696;10.358;2024-01-30T06:09:07;14.98;;;7.47;;
74523;SDS011;63074;44.696;10.358;2024-01-30T06:11:37;15.75;;;6.97;;
74523;SDS011;63074;44.696;10.358;2024-01-30T06:14:04;15.65;;;7.65;;
74523;SDS011;63074;44.696;10.358;2024-01-30T06:16:30;18.23;;;8.52;;
74523;SDS011;63074;44.696;10.358;2024-01-30T06:18:56;14.88;;;6.75;;
74523;SDS011;63074;44.696;10.358;2024-01-30T06:21:23;19.35;;;8.45;;
74523;SDS011;63074;44.696;10.358;2024-01-30T06:23:50;14.05;;;6.30;;
74523;SDS011;63074;44.696;10.358;2024-01-30T06:26:16;12.93;;;6.93;;
74523;SDS011;63074;44.696;10.358;2024-01-30T06:28:42;15.30;;;6.85;;
74523;SDS011;63074;44.696;10.358;2024-01-30T06:31:09;13.23;;;6.80;;
74523;SDS011;63074;44.696;10.358;2024-01-30T06:33:35;16.88;;;6.45;;
74523;SDS011;63074;44.696;10.358;2024-01-30T06:36:01;12.10;;;5.55;;
74523;SDS011;63074;44.696;10.358;2024-01-30T06:38:28;16.75;;;6.57;;
74523;SDS011;63074;44.696;10.358;2024-01-30T06:40:54;13.43;;;5.68;;
74523;SDS011;63074;44.696;10.358;2024-01-30T06:43:21;15.50;;;7.82;;
74523;SDS011;63074;44.696;10.358;2024-01-30T06:45:48;16.60;;;6.05;;
74523;SDS011;63074;44.696;10.358;2024-01-30T06:48:14;10.13;;;5.50;;
74523;SDS011;63074;44.696;10.358;2024-01-30T06:50:40;11.80;;;4.88;;
74523;SDS011;63074;44.696;10.358;2024-01-30T06:53:06;12.43;;;6.38;;
74523;SDS011;63074;44.696;10.358;2024-01-30T06:55:32;11.18;;;5.78;;
74523;SDS011;63074;44.696;10.358;2024-01-30T06:57:58;13.13;;;6.10;;
74523;SDS011;63074;44.696;10.358;2024-01-30T07:00:25;13.38;;;7.78;;
74523;SDS011;63074;44.696;10.358;2024-01-30T07:02:51;12.25;;;5.97;;
74523;SDS011;63074;44.696;10.358;2024-01-30T07:05:17;13.98;;;5.68;;
74523;SDS011;63074;44.696;10.358;2024-01-30T07:07:43;23.17;;;11.75;;
74523;SDS011;63074;44.696;10.358;2024-01-30T07:10:09;19.70;;;8.75;;
74523;SDS011;63074;44.696;10.358;2024-01-30T07:12:36;15.98;;;6.03;;
74523;SDS011;63074;44.696;10.358;2024-01-30T07:15:02;9.50;;;5.55;;
74523;SDS011;63074;44.696;10.358;2024-01-30T07:17:28;19.80;;;5.50;;
74523;SDS011;63074;44.696;10.358;2024-01-30T07:19:55;10.48;;;4.68;;
74523;SDS011;63074;44.696;10.358;2024-01-30T07:22:21;8.52;;;4.55;;
74523;SDS011;63074;44.696;10.358;2024-01-30T07:24:47;14.85;;;5.85;;
74523;SDS011;63074;44.696;10.358;2024-01-30T07:27:14;10.35;;;4.70;;
74523;SDS011;63074;44.696;10.358;2024-01-30T07:29:42;14.05;;;5.80;;
74523;SDS011;63074;44.696;10.358;2024-01-30T07:32:09;15.15;;;6.13;;
74523;SDS011;63074;44.696;10.358;2024-01-30T07:34:35;12.18;;;6.57;;
74523;SDS011;63074;44.696;10.358;2024-01-30T07:37:01;10.15;;;5.82;;
74523;SDS011;63074;44.696;10.358;2024-01-30T07:39:27;19.92;;;6.20;;
74523;SDS011;63074;44.696;10.358;2024-01-30T07:41:54;9.73;;;5.90;;
74523;SDS011;63074;44.696;10.358;2024-01-30T07:44:20;19.42;;;6.68;;
74523;SDS011;63074;44.696;10.358;2024-01-30T07:46:47;12.60;;;6.93;;
74523;SDS011;63074;44.696;10.358;2024-01-30T07:49:13;12.18;;;5.90;;
74523;SDS011;63074;44.696;10.358;2024-01-30T07:51:39;13.30;;;6.22;;
74523;SDS011;63074;44.696;10.358;2024-01-30T07:54:11;11.93;;;5.93;;
74523;SDS011;63074;44.696;10.358;2024-01-30T07:56:38;12.68;;;5.65;;
74523;SDS011;63074;44.696;10.358;2024-01-30T07:59:04;11.35;;;5.57;;
74523;SDS011;63074;44.696;10.358;2024-01-30T08:01:30;11.15;;;5.05;;
74523;SDS011;63074;44.696;10.358;2024-01-30T08:03:56;11.55;;;5.45;;
74523;SDS011;63074;44.696;10.358;2024-01-30T08:06:22;13.95;;;5.82;;
74523;SDS011;63074;44.696;10.358;2024-01-30T08:08:49;13.73;;;5.40;;
74523;SDS011;63074;44.696;10.358;2024-01-30T08:11:18;12.77;;;7.00;;
74523;SDS011;63074;44.696;10.358;2024-01-30T08:13:50;14.27;;;7.45;;
74523;SDS011;63074;44.696;10.358;2024-01-30T08:16:19;12.10;;;6.57;;
74523;SDS011;63074;44.696;10.358;2024-01-30T08:18:45;16.27;;;7.57;;
74523;SDS011;63074;44.696;10.358;2024-01-30T08:21:11;10.25;;;6.38;;
74523;SDS011;63074;44.696;10.358;2024-01-30T08:23:38;12.75;;;6.90;;
74523;SDS011;63074;44.696;10.358;2024-01-30T08:26:05;15.05;;;6.68;;
74523;SDS011;63074;44.696;10.358;2024-01-30T08:28:31;13.38;;;6.32;;
74523;SDS011;63074;44.696;10.358;2024-01-30T08:30:57;16.02;;;6.78;;
74523;SDS011;63074;44.696;10.358;2024-01-30T08:33:23;13.23;;;6.97;;
74523;SDS011;63074;44.696;10.358;2024-01-30T08:35:49;14.73;;;7.65;;
74523;SDS011;63074;44.696;10.358;2024-01-30T08:38:16;19.77;;;8.20;;
74523;SDS011;63074;44.696;10.358;2024-01-30T08:40:42;19.92;;;8.45;;
74523;SDS011;63074;44.696;10.358;2024-01-30T08:43:09;16.02;;;9.07;;
74523;SDS011;63074;44.696;10.358;2024-01-30T08:45:35;20.65;;;8.80;;
74523;SDS011;63074;44.696;10.358;2024-01-30T08:48:01;19.95;;;8.20;;
74523;SDS011;63074;44.696;10.358;2024-01-30T08:50:27;18.85;;;9.43;;
74523;SDS011;63074;44.696;10.358;2024-01-30T08:52:54;16.70;;;7.90;;
74523;SDS011;63074;44.696;10.358;2024-01-30T08:55:22;18.75;;;8.85;;
74523;SDS011;63074;44.696;10.358;2024-01-30T08:57:48;18.55;;;8.65;;
74523;SDS011;63074;44.696;10.358;2024-01-30T09:00:14;20.55;;;8.60;;
74523;SDS011;63074;44.696;10.358;2024-01-30T09:02:41;19.98;;;8.95;;
74523;SDS011;63074;44.696;10.358;2024-01-30T09:05:07;20.83;;;10.35;;
74523;SDS011;63074;44.696;10.358;2024-01-30T09:07:33;15.43;;;7.63;;
74523;SDS011;63074;44.696;10.358;2024-01-30T09:10:00;16.77;;;8.48;;
74523;SDS011;63074;44.696;10.358;2024-01-30T09:12:26;16.88;;;8.63;;
74523;SDS011;63074;44.696;10.358;2024-01-30T09:14:52;20.25;;;9.07;;
74523;SDS011;63074;44.696;10.358;2024-01-30T09:17:18;18.27;;;8.43;;
74523;SDS011;63074;44.696;10.358;2024-01-30T09:19:46;18.60;;;9.45;;
74523;SDS011;63074;44.696;10.358;2024-01-30T09:22:12;16.90;;;8.85;;
74523;SDS011;63074;44.696;10.358;2024-01-30T09:24:38;19.77;;;8.73;;
74523;SDS011;63074;44.696;10.358;2024-01-30T09:27:05;18.83;;;9.05;;
74523;SDS011;63074;44.696;10.358;2024-01-30T09:29:31;16.52;;;8.57;;
74523;SDS011;63074;44.696;10.358;2024-01-30T09:31:59;17.88;;;9.55;;
74523;SDS011;63074;44.696;10.358;2024-01-30T09:34:25;21.50;;;10.68;;
74523;SDS011;63074;44.696;10.358;2024-01-30T09:36:52;19.05;;;9.32;;
74523;SDS011;63074;44.696;10.358;2024-01-30T09:39:18;15.52;;;9.65;;
74523;SDS011;63074;44.696;10.358;2024-01-30T09:41:48;14.65;;;8.93;;
74523;SDS011;63074;44.696;10.358;2024-01-30T09:44:20;12.60;;;7.20;;
74523;SDS011;63074;44.696;10.358;2024-01-30T09:46:48;12.90;;;7.38;;
74523;SDS011;63074;44.696;10.358;2024-01-30T09:49:15;13.57;;;6.38;;
74523;SDS011;63074;44.696;10.358;2024-01-30T09:51:43;12.85;;;7.45;;
74523;SDS011;63074;44.696;10.358;2024-01-30T09:54:10;13.60;;;6.70;;
74523;SDS011;63074;44.696;10.358;2024-01-30T09:56:40;11.73;;;6.35;;
74523;SDS011;63074;44.696;10.358;2024-01-30T09:59:06;12.15;;;6.50;;
74523;SDS011;63074;44.696;10.358;2024-01-30T10:01:34;11.23;;;6.47;;
74523;SDS011;63074;44.696;10.358;2024-01-30T10:04:01;12.40;;;6.40;;
74523;SDS011;63074;44.696;10.358;2024-01-30T10:06:27;14.93;;;7.22;;
74523;SDS011;63074;44.696;10.358;2024-01-30T10:08:54;14.07;;;7.38;;
74523;SDS011;63074;44.696;10.358;2024-01-30T10:11:20;15.88;;;7.95;;
74523;SDS011;63074;44.696;10.358;2024-01-30T10:13:47;18.15;;;8.48;;
74523;SDS011;63074;44.696;10.358;2024-01-30T10:16:14;16.90;;;7.75;;
74523;SDS011;63074;44.696;10.358;2024-01-30T10:18:42;28.48;;;9.57;;
74523;SDS011;63074;44.696;10.358;2024-01-30T10:21:08;20.45;;;11.65;;
74523;SDS011;63074;44.696;10.358;2024-01-30T10:23:35;20.83;;;10.60;;
74523;SDS011;63074;44.696;10.358;2024-01-30T10:26:07;23.02;;;10.27;;
74523;SDS011;63074;44.696;10.358;2024-01-30T10:28:33;28.55;;;13.40;;
74523;SDS011;63074;44.696;10.358;2024-01-30T10:30:59;18.83;;;7.78;;
74523;SDS011;63074;44.696;10.358;2024-01-30T10:33:26;27.15;;;14.30;;
74523;SDS011;63074;44.696;10.358;2024-01-30T10:35:54;32.92;;;15.00;;
74523;SDS011;63074;44.696;10.358;2024-01-30T10:38:31;31.30;;;14.00;;
74523;SDS011;63074;44.696;10.358;2024-01-30T10:40:58;25.15;;;12.18;;
74523;SDS011;63074;44.696;10.358;2024-01-30T10:44:08;29.77;;;14.05;;
74523;SDS011;63074;44.696;10.358;2024-01-30T10:46:30;26.67;;;13.15;;
74523;SDS011;63074;44.696;10.358;2024-01-30T10:48:59;26.42;;;13.98;;
74523;SDS011;63074;44.696;10.358;2024-01-30T10:51:27;28.02;;;12.32;;
74523;SDS011;63074;44.696;10.358;2024-01-30T10:53:53;26.23;;;12.73;;
74523;SDS011;63074;44.696;10.358;2024-01-30T10:56:21;26.98;;;13.35;;
74523;SDS011;63074;44.696;10.358;2024-01-30T10:58:51;26.23;;;13.88;;
74523;SDS011;63074;44.696;10.358;2024-01-30T11:01:19;16.30;;;8.27;;
74523;SDS011;63074;44.696;10.358;2024-01-30T11:03:48;35.42;;;15.00;;
74523;SDS011;63074;44.696;10.358;2024-01-30T11:06:16;28.95;;;14.57;;
74523;SDS011;63074;44.696;10.358;2024-01-30T11:08:45;28.83;;;14.63;;
74523;SDS011;63074;44.696;10.358;2024-01-30T11:11:11;31.25;;;13.82;;
74523;SDS011;63074;44.696;10.358;2024-01-30T11:13:37;29.27;;;13.60;;
74523;SDS011;63074;44.696;10.358;2024-01-30T11:16:04;25.02;;;12.57;;
74523;SDS011;63074;44.696;10.358;2024-01-30T11:18:32;29.65;;;15.23;;
74523;SDS011;63074;44.696;10.358;2024-01-30T11:21:00;28.58;;;13.82;;
74523;SDS011;63074;44.696;10.358;2024-01-30T11:23:30;26.80;;;13.50;;
74523;SDS011;63074;44.696;10.358;2024-01-30T11:25:58;29.98;;;14.88;;
74523;SDS011;63074;44.696;10.358;2024-01-30T11:28:25;28.45;;;14.30;;
74523;SDS011;63074;44.696;10.358;2024-01-30T11:31:02;27.88;;;13.10;;
74523;SDS011;63074;44.696;10.358;2024-01-30T11:33:30;27.67;;;13.95;;
74523;SDS011;63074;44.696;10.358;2024-01-30T11:35:58;27.48;;;13.38;;
74523;SDS011;63074;44.696;10.358;2024-01-30T11:38:25;31.70;;;14.40;;
74523;SDS011;63074;44.696;10.358;2024-01-30T11:40:53;29.67;;;13.93;;
74523;SDS011;63074;44.696;10.358;2024-01-30T11:43:23;25.27;;;13.20;;
74523;SDS011;63074;44.696;10.358;2024-01-30T11:45:50;34.67;;;16.33;;
74523;SDS011;63074;44.696;10.358;2024-01-30T11:48:16;29.88;;;16.10;;
74523;SDS011;63074;44.696;10.358;2024-01-30T11:50:43;30.05;;;14.45;;
74523;SDS011;63074;44.696;10.358;2024-01-30T11:53:09;27.88;;;13.95;;
74523;SDS011;63074;44.696;10.358;2024-01-30T11:55:36;33.58;;;15.65;;
74523;SDS011;63074;44.696;10.358;2024-01-30T11:58:03;31.15;;;13.57;;
74523;SDS011;63074;44.696;10.358;2024-01-30T12:00:29;28.75;;;14.40;;
74523;SDS011;63074;44.696;10.358;2024-01-30T12:02:56;36.53;;;16.35;;
74523;SDS011;63074;44.696;10.358;2024-01-30T12:05:23;34.35;;;15.85;;
74523;SDS011;63074;44.696;10.358;2024-01-30T12:07:50;17.73;;;9.82;;
74523;SDS011;63074;44.696;10.358;2024-01-30T12:10:16;38.10;;;17.35;;
74523;SDS011;63074;44.696;10.358;2024-01-30T12:12:47;33.38;;;16.08;;
74523;SDS011;63074;44.696;10.358;2024-01-30T12:15:15;29.63;;;14.90;;
74523;SDS011;63074;44.696;10.358;2024-01-30T12:17:42;31.45;;;15.55;;
74523;SDS011;63074;44.696;10.358;2024-01-30T12:20:09;30.30;;;14.73;;
74523;SDS011;63074;44.696;10.358;2024-01-30T12:22:37;33.08;;;15.52;;
74523;SDS011;63074;44.696;10.358;2024-01-30T12:25:17;26.55;;;14.75;;
74523;SDS011;63074;44.696;10.358;2024-01-30T12:27:45;28.27;;;14.98;;
74523;SDS011;63074;44.696;10.358;2024-01-30T12:30:17;29.17;;;15.00;;
74523;SDS011;63074;44.696;10.358;2024-01-30T12:32:45;33.67;;;15.63;;
74523;SDS011;63074;44.696;10.358;2024-01-30T12:35:15;29.77;;;15.75;;
74523;SDS011;63074;44.696;10.358;2024-01-30T12:37:42;28.38;;;14.88;;
74523;SDS011;63074;44.696;10.358;2024-01-30T12:40:10;31.77;;;14.35;;
74523;SDS011;63074;44.696;10.358;2024-01-30T12:42:40;30.20;;;15.75;;
74523;SDS011;63074;44.696;10.358;2024-01-30T12:45:08;30.90;;;15.32;;
74523;SDS011;63074;44.696;10.358;2024-01-30T12:47:34;29.27;;;15.80;;
74523;SDS011;63074;44.696;10.358;2024-01-30T12:50:01;27.63;;;15.88;;
74523;SDS011;63074;44.696;10.358;2024-01-30T12:52:28;32.65;;;15.95;;
74523;SDS011;63074;44.696;10.358;2024-01-30T12:54:54;29.27;;;15.95;;
74523;SDS011;63074;44.696;10.358;2024-01-30T12:57:21;29.92;;;15.45;;
74523;SDS011;63074;44.696;10.358;2024-01-30T12:59:47;33.25;;;17.85;;
74523;SDS011;63074;44.696;10.358;2024-01-30T13:02:13;32.60;;;16.23;;
74523;SDS011;63074;44.696;10.358;2024-01-30T13:04:41;28.15;;;15.63;;
74523;SDS011;63074;44.696;10.358;2024-01-30T13:07:08;25.98;;;15.85;;
74523;SDS011;63074;44.696;10.358;2024-01-30T13:09:34;30.08;;;15.52;;
74523;SDS011;63074;44.696;10.358;2024-01-30T13:12:00;25.75;;;13.57;;
74523;SDS011;63074;44.696;10.358;2024-01-30T13:14:27;25.65;;;14.57;;
74523;SDS011;63074;44.696;10.358;2024-01-30T13:16:53;25.35;;;13.90;;
74523;SDS011;63074;44.696;10.358;2024-01-30T13:19:19;23.35;;;13.50;;
74523;SDS011;63074;44.696;10.358;2024-01-30T13:21:45;25.27;;;13.68;;
74523;SDS011;63074;44.696;10.358;2024-01-30T13:24:12;22.88;;;12.73;;
74523;SDS011;63074;44.696;10.358;2024-01-30T13:26:39;26.40;;;13.70;;
74523;SDS011;63074;44.696;10.358;2024-01-30T13:29:07;25.02;;;14.32;;
74523;SDS011;63074;44.696;10.358;2024-01-30T13:31:33;24.92;;;13.88;;
74523;SDS011;63074;44.696;10.358;2024-01-30T13:33:59;25.10;;;13.75;;
74523;SDS011;63074;44.696;10.358;2024-01-30T13:36:26;25.75;;;14.00;;
74523;SDS011;63074;44.696;10.358;2024-01-30T13:38:52;23.42;;;13.50;;
74523;SDS011;63074;44.696;10.358;2024-01-30T13:41:18;24.50;;;14.13;;
74523;SDS011;63074;44.696;10.358;2024-01-30T13:43:45;24.80;;;13.95;;
74523;SDS011;63074;44.696;10.358;2024-01-30T13:46:12;26.83;;;14.52;;
74523;SDS011;63074;44.696;10.358;2024-01-30T13:48:38;25.95;;;13.57;;
74523;SDS011;63074;44.696;10.358;2024-01-30T13:51:04;25.02;;;14.18;;
74523;SDS011;63074;44.696;10.358;2024-01-30T13:53:31;26.17;;;15.13;;
74523;SDS011;63074;44.696;10.358;2024-01-30T13:55:57;28.95;;;14.45;;
74523;SDS011;63074;44.696;10.358;2024-01-30T13:58:23;24.27;;;15.23;;
74523;SDS011;63074;44.696;10.358;2024-01-30T14:00:49;25.92;;;16.08;;
74523;SDS011;63074;44.696;10.358;2024-01-30T14:03:15;28.67;;;14.68;;
74523;SDS011;63074;44.696;10.358;2024-01-30T14:05:42;27.35;;;14.48;;
74523;SDS011;63074;44.696;10.358;2024-01-30T14:08:09;28.65;;;15.07;;
74523;SDS011;63074;44.696;10.358;2024-01-30T14:10:35;26.27;;;14.45;;
74523;SDS011;63074;44.696;10.358;2024-01-30T14:13:01;30.17;;;16.33;;
74523;SDS011;63074;44.696;10.358;2024-01-30T14:15:28;26.27;;;14.88;;
74523;SDS011;63074;44.696;10.358;2024-01-30T14:17:54;28.10;;;14.45;;